Pagador Airport

BR-0843 · São Paulo, 巴西

罗盘
风向 的 风向 020°
风: 5 kt, 2 beaufort

添加一条跑道以查看侧风和逆风信息。

添置 跑道
0 ft 1.000 2.000 3.000 4.000 5.000
CAVOK
METAR SBDN 121700Z 02005KT CAVOK 32/13 Q1018

METAR Pagador Airport - BR-0843

Pagador Airport是,巴西中的小机场。 该机场位于纬度-22,18380和经度-51,47466。 这个机场没有ICAO代码,我们使用BR-0843作为参考。 机场在Curitiba FIR中。

该航空气象观测是针对Presidente Prudente Airport在2024年6月12日 14:00, 当地时间进行的。

机场观察

风向为020°,速度为5 kt。

天气为CAVOK。这意味着在5.000 ft或MSA(最低安全高度)以下(以较高者为准)以下没有云。这也意味着没有观测到积雨云或高耸的积云,可见度为10 km 或者更多或更高。此外,不会有雾,降雨或其他重要天气。

温度和风寒是32 °C。 露点为13 °C,相对湿度为31%。 海平面上的气压为1018 hPa (QNH)。

白天

今天,太阳从07:02升起,在17:49降落。 这适用于Pagador Airport,世界夏令时可能有所不同。 当地时间与世界标准时间之间的时差为-3 小时。 夏令时目前正在进行中。

公司介绍

我们没有关于这个机场的公司信息。

体会

到Vliegles.nl去找飞行课程,跳伞和其他飞行体验。 浏览页面,了解Pagador Airport附近所有可用的活动。 你也可以使用搜索功能来寻找你所在地附近的特定飞行课程、跳伞或其他飞行体验。

温度 & 天气

温度 32 °C
露点 13 °C
相对湿度 31%
Kp-index 1 (0-9)

白天

日出
07:01
中午
12:25
日落
17:49 (2:58)

小工具

你想在你的网站上有一个关于Pagador Airport的当前航空天气(METAR)的小部件吗?

显示HTML代码
报告变更